sensor_id;sensor_type;location;lat;lon;timestamp;temperature;humidity
75931;DHT22;64609;47.052;15.462;2023-11-19T00:02:10;9.30;53.80
75931;DHT22;64609;47.052;15.462;2023-11-19T00:04:39;9.30;53.50
75931;DHT22;64609;47.052;15.462;2023-11-19T00:07:08;9.30;53.60
75931;DHT22;64609;47.052;15.462;2023-11-19T00:09:35;9.30;53.80
75931;DHT22;64609;47.052;15.462;2023-11-19T00:12:03;9.30;54.20
75931;DHT22;64609;47.052;15.462;2023-11-19T00:14:30;9.30;54.60
75931;DHT22;64609;47.052;15.462;2023-11-19T00:16:55;9.30;54.90
75931;DHT22;64609;47.052;15.462;2023-11-19T00:19:21;9.30;55.00
75931;DHT22;64609;47.052;15.462;2023-11-19T00:21:47;9.40;54.80
75931;DHT22;64609;47.052;15.462;2023-11-19T00:24:13;9.40;54.40
75931;DHT22;64609;47.052;15.462;2023-11-19T00:26:41;9.40;54.10
75931;DHT22;64609;47.052;15.462;2023-11-19T00:29:07;9.50;54.10
75931;DHT22;64609;47.052;15.462;2023-11-19T00:31:33;9.50;54.10
75931;DHT22;64609;47.052;15.462;2023-11-19T00:33:58;9.50;54.00
75931;DHT22;64609;47.052;15.462;2023-11-19T00:36:24;9.60;53.90
75931;DHT22;64609;47.052;15.462;2023-11-19T00:38:51;9.60;54.10
75931;DHT22;64609;47.052;15.462;2023-11-19T00:41:18;9.70;54.40
75931;DHT22;64609;47.052;15.462;2023-11-19T00:43:44;9.70;54.10
75931;DHT22;64609;47.052;15.462;2023-11-19T00:46:09;9.70;54.00
75931;DHT22;64609;47.052;15.462;2023-11-19T00:48:37;9.60;53.80
75931;DHT22;64609;47.052;15.462;2023-11-19T00:51:03;9.60;53.70
75931;DHT22;64609;47.052;15.462;2023-11-19T00:53:29;9.60;53.80
75931;DHT22;64609;47.052;15.462;2023-11-19T00:55:55;9.60;53.60
75931;DHT22;64609;47.052;15.462;2023-11-19T00:58:21;9.50;53.60
75931;DHT22;64609;47.052;15.462;2023-11-19T01:00:47;9.60;53.50
75931;DHT22;64609;47.052;15.462;2023-11-19T01:03:12;9.60;53.80
75931;DHT22;64609;47.052;15.462;2023-11-19T01:05:38;9.50;53.70
75931;DHT22;64609;47.052;15.462;2023-11-19T01:08:04;9.50;53.70
75931;DHT22;64609;47.052;15.462;2023-11-19T01:10:31;9.50;53.70
75931;DHT22;64609;47.052;15.462;2023-11-19T01:12:56;9.50;53.40
75931;DHT22;64609;47.052;15.462;2023-11-19T01:15:22;9.50;53.40
75931;DHT22;64609;47.052;15.462;2023-11-19T01:17:48;9.50;53.80
75931;DHT22;64609;47.052;15.462;2023-11-19T01:20:14;9.50;53.20
75931;DHT22;64609;47.052;15.462;2023-11-19T01:22:40;9.50;53.30
75931;DHT22;64609;47.052;15.462;2023-11-19T01:25:06;9.50;53.30
75931;DHT22;64609;47.052;15.462;2023-11-19T01:27:32;9.40;53.00
75931;DHT22;64609;47.052;15.462;2023-11-19T01:30:00;9.50;53.30
75931;DHT22;64609;47.052;15.462;2023-11-19T01:32:28;9.50;53.00
75931;DHT22;64609;47.052;15.462;2023-11-19T01:34:54;9.50;53.00
75931;DHT22;64609;47.052;15.462;2023-11-19T01:37:19;9.50;53.00
75931;DHT22;64609;47.052;15.462;2023-11-19T01:39:45;9.60;53.00
75931;DHT22;64609;47.052;15.462;2023-11-19T01:42:11;9.60;53.20
75931;DHT22;64609;47.052;15.462;2023-11-19T01:44:37;9.60;53.00
75931;DHT22;64609;47.052;15.462;2023-11-19T01:47:03;9.60;53.50
75931;DHT22;64609;47.052;15.462;2023-11-19T01:49:30;9.60;53.40
75931;DHT22;64609;47.052;15.462;2023-11-19T01:51:57;9.60;53.30
75931;DHT22;64609;47.052;15.462;2023-11-19T01:54:24;9.60;53.60
75931;DHT22;64609;47.052;15.462;2023-11-19T01:56:50;9.60;53.40
75931;DHT22;64609;47.052;15.462;2023-11-19T01:59:16;9.60;53.50
75931;DHT22;64609;47.052;15.462;2023-11-19T02:01:42;9.50;53.60
75931;DHT22;64609;47.052;15.462;2023-11-19T02:04:08;9.50;53.70
75931;DHT22;64609;47.052;15.462;2023-11-19T02:06:35;9.60;53.80
75931;DHT22;64609;47.052;15.462;2023-11-19T02:09:02;9.60;53.90
75931;DHT22;64609;47.052;15.462;2023-11-19T02:11:36;9.60;53.90
75931;DHT22;64609;47.052;15.462;2023-11-19T02:14:01;9.50;54.00
75931;DHT22;64609;47.052;15.462;2023-11-19T02:16:29;9.50;54.10
75931;DHT22;64609;47.052;15.462;2023-11-19T02:18:55;9.50;54.30
75931;DHT22;64609;47.052;15.462;2023-11-19T02:21:20;9.50;54.40
75931;DHT22;64609;47.052;15.462;2023-11-19T02:23:46;9.50;54.60
75931;DHT22;64609;47.052;15.462;2023-11-19T02:26:22;9.50;54.90
75931;DHT22;64609;47.052;15.462;2023-11-19T02:28:50;9.40;55.20
75931;DHT22;64609;47.052;15.462;2023-11-19T02:31:15;9.40;55.20
75931;DHT22;64609;47.052;15.462;2023-11-19T02:33:41;9.40;55.80
75931;DHT22;64609;47.052;15.462;2023-11-19T02:36:08;9.40;55.60
75931;DHT22;64609;47.052;15.462;2023-11-19T02:38:35;9.40;55.50
75931;DHT22;64609;47.052;15.462;2023-11-19T02:41:04;9.40;55.70
75931;DHT22;64609;47.052;15.462;2023-11-19T02:43:34;9.40;55.90
75931;DHT22;64609;47.052;15.462;2023-11-19T02:46:01;9.30;55.90
75931;DHT22;64609;47.052;15.462;2023-11-19T02:48:27;9.30;56.20
75931;DHT22;64609;47.052;15.462;2023-11-19T02:50:53;9.30;56.40
75931;DHT22;64609;47.052;15.462;2023-11-19T02:53:18;9.30;56.60
75931;DHT22;64609;47.052;15.462;2023-11-19T02:55:47;9.30;56.50
75931;DHT22;64609;47.052;15.462;2023-11-19T02:58:14;9.30;56.60
75931;DHT22;64609;47.052;15.462;2023-11-19T03:00:49;9.30;56.90
75931;DHT22;64609;47.052;15.462;2023-11-19T03:03:24;9.30;56.90
75931;DHT22;64609;47.052;15.462;2023-11-19T03:05:54;9.30;57.80
75931;DHT22;64609;47.052;15.462;2023-11-19T03:08:20;9.20;56.80
75931;DHT22;64609;47.052;15.462;2023-11-19T03:10:46;9.20;56.80
75931;DHT22;64609;47.052;15.462;2023-11-19T03:13:13;9.20;56.80
75931;DHT22;64609;47.052;15.462;2023-11-19T03:15:45;9.20;57.90
75931;DHT22;64609;47.052;15.462;2023-11-19T03:18:11;9.20;56.90
75931;DHT22;64609;47.052;15.462;2023-11-19T03:20:37;9.20;57.20
75931;DHT22;64609;47.052;15.462;2023-11-19T03:23:02;9.20;57.40
75931;DHT22;64609;47.052;15.462;2023-11-19T03:25:28;9.20;57.60
75931;DHT22;64609;47.052;15.462;2023-11-19T03:28:02;9.20;57.60
75931;DHT22;64609;47.052;15.462;2023-11-19T03:30:28;9.20;57.70
75931;DHT22;64609;47.052;15.462;2023-11-19T03:32:55;9.10;57.70
75931;DHT22;64609;47.052;15.462;2023-11-19T03:35:21;9.10;57.80
75931;DHT22;64609;47.052;15.462;2023-11-19T03:37:47;9.10;57.90
75931;DHT22;64609;47.052;15.462;2023-11-19T03:40:13;9.10;58.10
75931;DHT22;64609;47.052;15.462;2023-11-19T03:42:38;9.10;58.20
75931;DHT22;64609;47.052;15.462;2023-11-19T03:45:07;9.10;58.40
75931;DHT22;64609;47.052;15.462;2023-11-19T03:47:35;9.00;58.50
75931;DHT22;64609;47.052;15.462;2023-11-19T03:50:02;9.10;58.50
75931;DHT22;64609;47.052;15.462;2023-11-19T03:52:28;9.10;58.50
75931;DHT22;64609;47.052;15.462;2023-11-19T03:54:55;9.10;58.40
75931;DHT22;64609;47.052;15.462;2023-11-19T03:57:21;9.10;58.40
75931;DHT22;64609;47.052;15.462;2023-11-19T03:59:47;9.10;58.40
75931;DHT22;64609;47.052;15.462;2023-11-19T04:02:12;9.00;58.50
75931;DHT22;64609;47.052;15.462;2023-11-19T04:04:38;9.00;58.70
75931;DHT22;64609;47.052;15.462;2023-11-19T04:07:06;9.00;58.70
75931;DHT22;64609;47.052;15.462;2023-11-19T04:09:32;9.00;58.80
75931;DHT22;64609;47.052;15.462;2023-11-19T04:12:02;9.10;58.70
75931;DHT22;64609;47.052;15.462;2023-11-19T04:14:28;9.00;58.60
75931;DHT22;64609;47.052;15.462;2023-11-19T04:16:54;9.00;58.60
75931;DHT22;64609;47.052;15.462;2023-11-19T04:19:19;9.00;58.70
75931;DHT22;64609;47.052;15.462;2023-11-19T04:21:45;9.00;58.70
75931;DHT22;64609;47.052;15.462;2023-11-19T04:24:12;9.00;58.80
75931;DHT22;64609;47.052;15.462;2023-11-19T04:26:42;9.00;58.90
75931;DHT22;64609;47.052;15.462;2023-11-19T04:29:12;9.00;58.90
75931;DHT22;64609;47.052;15.462;2023-11-19T04:31:38;9.00;58.90
75931;DHT22;64609;47.052;15.462;2023-11-19T04:34:05;9.00;58.70
75931;DHT22;64609;47.052;15.462;2023-11-19T04:36:32;9.00;58.70
75931;DHT22;64609;47.052;15.462;2023-11-19T04:38:58;9.00;58.50
75931;DHT22;64609;47.052;15.462;2023-11-19T04:41:25;9.00;58.60
75931;DHT22;64609;47.052;15.462;2023-11-19T04:43:51;9.00;58.80
75931;DHT22;64609;47.052;15.462;2023-11-19T04:46:16;9.00;58.80
75931;DHT22;64609;47.052;15.462;2023-11-19T04:48:42;9.00;58.90
75931;DHT22;64609;47.052;15.462;2023-11-19T04:51:08;8.90;59.00
75931;DHT22;64609;47.052;15.462;2023-11-19T04:53:35;8.90;58.90
75931;DHT22;64609;47.052;15.462;2023-11-19T04:56:00;8.90;59.70
75931;DHT22;64609;47.052;15.462;2023-11-19T04:58:29;8.90;58.70
75931;DHT22;64609;47.052;15.462;2023-11-19T05:00:54;8.90;58.90
75931;DHT22;64609;47.052;15.462;2023-11-19T05:03:20;8.90;59.10
75931;DHT22;64609;47.052;15.462;2023-11-19T05:05:48;8.80;59.10
75931;DHT22;64609;47.052;15.462;2023-11-19T05:08:14;8.80;59.00
75931;DHT22;64609;47.052;15.462;2023-11-19T05:10:39;8.70;59.10
75931;DHT22;64609;47.052;15.462;2023-11-19T05:13:05;8.60;59.20
75931;DHT22;64609;47.052;15.462;2023-11-19T05:15:31;8.60;59.60
75931;DHT22;64609;47.052;15.462;2023-11-19T05:17:56;8.50;60.40
75931;DHT22;64609;47.052;15.462;2023-11-19T05:20:22;8.50;59.70
75931;DHT22;64609;47.052;15.462;2023-11-19T05:22:48;8.40;59.80
75931;DHT22;64609;47.052;15.462;2023-11-19T05:25:14;8.40;60.00
75931;DHT22;64609;47.052;15.462;2023-11-19T05:27:39;8.40;60.10
75931;DHT22;64609;47.052;15.462;2023-11-19T05:30:06;8.40;60.20
75931;DHT22;64609;47.052;15.462;2023-11-19T05:32:36;8.40;60.20
75931;DHT22;64609;47.052;15.462;2023-11-19T05:35:01;8.40;60.20
75931;DHT22;64609;47.052;15.462;2023-11-19T05:37:27;8.40;60.20
75931;DHT22;64609;47.052;15.462;2023-11-19T05:39:53;8.40;60.30
75931;DHT22;64609;47.052;15.462;2023-11-19T05:42:18;8.30;60.40
75931;DHT22;64609;47.052;15.462;2023-11-19T05:44:44;8.30;60.50
75931;DHT22;64609;47.052;15.462;2023-11-19T05:47:10;8.30;60.60
75931;DHT22;64609;47.052;15.462;2023-11-19T05:49:35;8.30;60.60
75931;DHT22;64609;47.052;15.462;2023-11-19T05:52:01;8.30;60.90
75931;DHT22;64609;47.052;15.462;2023-11-19T05:54:28;8.40;61.00
75931;DHT22;64609;47.052;15.462;2023-11-19T05:56:54;8.40;61.00
75931;DHT22;64609;47.052;15.462;2023-11-19T05:59:20;8.40;61.00
75931;DHT22;64609;47.052;15.462;2023-11-19T06:01:48;8.40;61.00
75931;DHT22;64609;47.052;15.462;2023-11-19T06:04:14;8.40;61.10
75931;DHT22;64609;47.052;15.462;2023-11-19T06:06:39;8.40;61.20
75931;DHT22;64609;47.052;15.462;2023-11-19T06:09:06;8.40;61.20
75931;DHT22;64609;47.052;15.462;2023-11-19T06:11:36;8.40;61.30
75931;DHT22;64609;47.052;15.462;2023-11-19T06:14:02;8.40;61.60
75931;DHT22;64609;47.052;15.462;2023-11-19T06:16:29;8.50;61.40
75931;DHT22;64609;47.052;15.462;2023-11-19T06:18:55;8.50;61.10
75931;DHT22;64609;47.052;15.462;2023-11-19T06:21:20;8.50;61.00
75931;DHT22;64609;47.052;15.462;2023-11-19T06:23:46;8.50;61.00
75931;DHT22;64609;47.052;15.462;2023-11-19T06:26:11;8.50;61.10
75931;DHT22;64609;47.052;15.462;2023-11-19T06:28:37;8.50;61.30
75931;DHT22;64609;47.052;15.462;2023-11-19T06:31:03;8.60;61.10
75931;DHT22;64609;47.052;15.462;2023-11-19T06:33:29;8.60;62.00
75931;DHT22;64609;47.052;15.462;2023-11-19T06:35:55;8.60;60.90
75931;DHT22;64609;47.052;15.462;2023-11-19T06:38:20;8.60;60.90
75931;DHT22;64609;47.052;15.462;2023-11-19T06:40:46;8.60;61.10
75931;DHT22;64609;47.052;15.462;2023-11-19T06:43:12;8.60;61.10
75931;DHT22;64609;47.052;15.462;2023-11-19T06:45:37;8.70;60.80
75931;DHT22;64609;47.052;15.462;2023-11-19T06:48:04;8.70;60.70
75931;DHT22;64609;47.052;15.462;2023-11-19T06:50:30;8.70;60.40
75931;DHT22;64609;47.052;15.462;2023-11-19T06:52:56;8.80;60.30
75931;DHT22;64609;47.052;15.462;2023-11-19T06:55:21;8.70;60.30
75931;DHT22;64609;47.052;15.462;2023-11-19T06:57:47;8.80;60.10
75931;DHT22;64609;47.052;15.462;2023-11-19T07:00:13;8.80;59.80
75931;DHT22;64609;47.052;15.462;2023-11-19T07:02:39;8.90;59.60
75931;DHT22;64609;47.052;15.462;2023-11-19T07:05:05;8.90;59.30
75931;DHT22;64609;47.052;15.462;2023-11-19T07:07:32;9.00;59.00
75931;DHT22;64609;47.052;15.462;2023-11-19T07:09:58;9.00;58.80
75931;DHT22;64609;47.052;15.462;2023-11-19T07:12:24;9.00;59.00
75931;DHT22;64609;47.052;15.462;2023-11-19T07:14:52;9.00;59.10
75931;DHT22;64609;47.052;15.462;2023-11-19T07:17:18;9.10;59.40
75931;DHT22;64609;47.052;15.462;2023-11-19T07:19:46;9.20;59.20
75931;DHT22;64609;47.052;15.462;2023-11-19T07:22:11;9.20;59.10
75931;DHT22;64609;47.052;15.462;2023-11-19T07:24:39;9.30;58.80
75931;DHT22;64609;47.052;15.462;2023-11-19T07:27:05;9.40;58.80
75931;DHT22;64609;47.052;15.462;2023-11-19T07:29:32;9.50;58.80
75931;DHT22;64609;47.052;15.462;2023-11-19T07:31:57;9.50;58.30
75931;DHT22;64609;47.052;15.462;2023-11-19T07:34:24;9.50;58.20
75931;DHT22;64609;47.052;15.462;2023-11-19T07:36:50;9.40;58.30
75931;DHT22;64609;47.052;15.462;2023-11-19T07:39:15;9.30;58.40
75931;DHT22;64609;47.052;15.462;2023-11-19T07:41:41;9.20;58.20
75931;DHT22;64609;47.052;15.462;2023-11-19T07:44:06;9.20;58.20
75931;DHT22;64609;47.052;15.462;2023-11-19T07:46:32;9.10;58.60
75931;DHT22;64609;47.052;15.462;2023-11-19T07:48:58;9.10;58.70
75931;DHT22;64609;47.052;15.462;2023-11-19T07:51:24;9.10;58.30
75931;DHT22;64609;47.052;15.462;2023-11-19T07:53:49;9.10;58.80
75931;DHT22;64609;47.052;15.462;2023-11-19T07:56:15;9.20;58.80
75931;DHT22;64609;47.052;15.462;2023-11-19T07:58:41;9.20;58.70
75931;DHT22;64609;47.052;15.462;2023-11-19T08:01:07;9.30;58.00
75931;DHT22;64609;47.052;15.462;2023-11-19T08:03:33;9.40;57.80
75931;DHT22;64609;47.052;15.462;2023-11-19T08:06:01;9.50;57.30
75931;DHT22;64609;47.052;15.462;2023-11-19T08:08:27;9.50;57.40
75931;DHT22;64609;47.052;15.462;2023-11-19T08:10:55;9.50;57.30
75931;DHT22;64609;47.052;15.462;2023-11-19T08:13:23;9.60;57.40
75931;DHT22;64609;47.052;15.462;2023-11-19T08:15:49;9.60;57.40
75931;DHT22;64609;47.052;15.462;2023-11-19T08:18:14;9.90;57.30
75931;DHT22;64609;47.052;15.462;2023-11-19T08:20:40;10.40;56.40
75931;DHT22;64609;47.052;15.462;2023-11-19T08:23:06;10.90;55.80
75931;DHT22;64609;47.052;15.462;2023-11-19T08:25:33;11.80;54.20
75931;DHT22;64609;47.052;15.462;2023-11-19T08:28:01;12.80;51.60
75931;DHT22;64609;47.052;15.462;2023-11-19T08:30:29;13.70;49.80
75931;DHT22;64609;47.052;15.462;2023-11-19T08:32:54;14.70;48.00
75931;DHT22;64609;47.052;15.462;2023-11-19T08:35:20;16.30;46.20
75931;DHT22;64609;47.052;15.462;2023-11-19T08:37:46;17.90;42.80
75931;DHT22;64609;47.052;15.462;2023-11-19T08:40:11;19.10;40.50
75931;DHT22;64609;47.052;15.462;2023-11-19T08:42:39;20.10;38.80
75931;DHT22;64609;47.052;15.462;2023-11-19T08:45:06;21.10;36.60
75931;DHT22;64609;47.052;15.462;2023-11-19T08:47:31;21.90;34.80
75931;DHT22;64609;47.052;15.462;2023-11-19T08:49:57;22.90;33.10
75931;DHT22;64609;47.052;15.462;2023-11-19T08:52:23;23.60;31.90
75931;DHT22;64609;47.052;15.462;2023-11-19T08:54:49;24.10;30.40
75931;DHT22;64609;47.052;15.462;2023-11-19T08:57:14;24.70;29.70
75931;DHT22;64609;47.052;15.462;2023-11-19T08:59:40;25.40;28.80
75931;DHT22;64609;47.052;15.462;2023-11-19T09:02:06;26.10;29.00
75931;DHT22;64609;47.052;15.462;2023-11-19T09:04:32;26.50;27.90
75931;DHT22;64609;47.052;15.462;2023-11-19T09:06:58;26.40;27.30
75931;DHT22;64609;47.052;15.462;2023-11-19T09:09:24;26.10;27.70
75931;DHT22;64609;47.052;15.462;2023-11-19T09:11:49;25.40;28.00
75931;DHT22;64609;47.052;15.462;2023-11-19T09:14:15;24.90;28.30
75931;DHT22;64609;47.052;15.462;2023-11-19T09:16:41;25.10;28.40
75931;DHT22;64609;47.052;15.462;2023-11-19T09:19:06;25.40;27.90
75931;DHT22;64609;47.052;15.462;2023-11-19T09:21:32;24.40;28.20
75931;DHT22;64609;47.052;15.462;2023-11-19T09:23:59;22.50;30.00
75931;DHT22;64609;47.052;15.462;2023-11-19T09:26:25;20.50;32.50
75931;DHT22;64609;47.052;15.462;2023-11-19T09:28:51;19.00;34.60
75931;DHT22;64609;47.052;15.462;2023-11-19T09:31:18;17.90;36.70
75931;DHT22;64609;47.052;15.462;2023-11-19T09:33:44;17.90;37.60
75931;DHT22;64609;47.052;15.462;2023-11-19T09:36:12;17.90;37.70
75931;DHT22;64609;47.052;15.462;2023-11-19T09:38:40;18.00;37.90
75931;DHT22;64609;47.052;15.462;2023-11-19T09:41:06;18.40;38.40
75931;DHT22;64609;47.052;15.462;2023-11-19T09:43:36;18.80;37.30
75931;DHT22;64609;47.052;15.462;2023-11-19T09:46:05;19.10;37.40
75931;DHT22;64609;47.052;15.462;2023-11-19T09:48:36;19.40;36.50
75931;DHT22;64609;47.052;15.462;2023-11-19T09:51:11;19.50;36.30
75931;DHT22;64609;47.052;15.462;2023-11-19T09:53:37;19.50;36.30
75931;DHT22;64609;47.052;15.462;2023-11-19T09:56:04;19.50;36.00
75931;DHT22;64609;47.052;15.462;2023-11-19T09:58:30;19.30;36.10
75931;DHT22;64609;47.052;15.462;2023-11-19T10:00:57;19.10;36.80
75931;DHT22;64609;47.052;15.462;2023-11-19T10:03:33;19.10;36.80
75931;DHT22;64609;47.052;15.462;2023-11-19T10:06:00;19.20;36.80
75931;DHT22;64609;47.052;15.462;2023-11-19T10:08:26;19.30;36.80
75931;DHT22;64609;47.052;15.462;2023-11-19T10:10:52;19.30;36.30
75931;DHT22;64609;47.052;15.462;2023-11-19T10:13:18;18.60;37.00
75931;DHT22;64609;47.052;15.462;2023-11-19T10:15:43;17.80;38.40
75931;DHT22;64609;47.052;15.462;2023-11-19T10:18:09;17.10;39.40
75931;DHT22;64609;47.052;15.462;2023-11-19T10:20:41;16.50;40.20
75931;DHT22;64609;47.052;15.462;2023-11-19T10:23:07;16.70;41.20
75931;DHT22;64609;47.052;15.462;2023-11-19T10:25:33;16.90;41.00
75931;DHT22;64609;47.052;15.462;2023-11-19T10:27:59;17.20;40.60
75931;DHT22;64609;47.052;15.462;2023-11-19T10:30:30;17.50;40.00
75931;DHT22;64609;47.052;15.462;2023-11-19T10:33:12;17.70;39.90
75931;DHT22;64609;47.052;15.462;2023-11-19T10:38:19;18.10;39.90
75931;DHT22;64609;47.052;15.462;2023-11-19T10:40:45;18.20;39.20
75931;DHT22;64609;47.052;15.462;2023-11-19T10:43:10;18.20;39.00
75931;DHT22;64609;47.052;15.462;2023-11-19T10:45:38;18.30;39.00
75931;DHT22;64609;47.052;15.462;2023-11-19T10:48:05;18.40;39.10
75931;DHT22;64609;47.052;15.462;2023-11-19T10:50:34;18.40;39.10
75931;DHT22;64609;47.052;15.462;2023-11-19T10:53:01;18.30;39.00
75931;DHT22;64609;47.052;15.462;2023-11-19T10:55:28;18.30;39.40
75931;DHT22;64609;47.052;15.462;2023-11-19T10:58:05;18.10;39.60
75931;DHT22;64609;47.052;15.462;2023-11-19T11:03:16;17.60;40.00
75931;DHT22;64609;47.052;15.462;2023-11-19T11:05:42;17.50;40.40
75931;DHT22;64609;47.052;15.462;2023-11-19T11:08:09;17.40;40.90
75931;DHT22;64609;47.052;15.462;2023-11-19T11:10:42;17.40;40.60
75931;DHT22;64609;47.052;15.462;2023-11-19T11:13:08;17.30;41.00
75931;DHT22;64609;47.052;15.462;2023-11-19T11:15:34;17.20;41.10
75931;DHT22;64609;47.052;15.462;2023-11-19T11:18:02;17.10;41.40
75931;DHT22;64609;47.052;15.462;2023-11-19T11:20:30;17.10;41.80
75931;DHT22;64609;47.052;15.462;2023-11-19T11:25:50;17.10;41.60
75931;DHT22;64609;47.052;15.462;2023-11-19T11:31:43;17.10;41.60
75931;DHT22;64609;47.052;15.462;2023-11-19T11:34:19;16.90;41.30
75931;DHT22;64609;47.052;15.462;2023-11-19T11:39:40;16.80;42.40
75931;DHT22;64609;47.052;15.462;2023-11-19T11:55:34;16.30;43.50
75931;DHT22;64609;47.052;15.462;2023-11-19T11:58:02;16.20;43.30
75931;DHT22;64609;47.052;15.462;2023-11-19T12:00:41;16.10;43.20
75931;DHT22;64609;47.052;15.462;2023-11-19T12:03:08;15.90;43.70
75931;DHT22;64609;47.052;15.462;2023-11-19T12:05:38;15.80;44.10
75931;DHT22;64609;47.052;15.462;2023-11-19T12:08:06;15.80;44.20
75931;DHT22;64609;47.052;15.462;2023-11-19T12:10:37;15.80;44.20
75931;DHT22;64609;47.052;15.462;2023-11-19T12:13:06;15.80;44.70
75931;DHT22;64609;47.052;15.462;2023-11-19T12:15:32;15.70;44.70
75931;DHT22;64609;47.052;15.462;2023-11-19T12:17:58;15.60;44.80
75931;DHT22;64609;47.052;15.462;2023-11-19T12:20:25;15.60;44.60
75931;DHT22;64609;47.052;15.462;2023-11-19T12:22:52;15.50;45.20
75931;DHT22;64609;47.052;15.462;2023-11-19T12:25:19;15.50;45.30
75931;DHT22;64609;47.052;15.462;2023-11-19T12:27:47;15.50;45.30
75931;DHT22;64609;47.052;15.462;2023-11-19T12:30:17;15.50;45.40
75931;DHT22;64609;47.052;15.462;2023-11-19T12:32:46;15.40;45.40
75931;DHT22;64609;47.052;15.462;2023-11-19T12:35:12;15.30;45.20
75931;DHT22;64609;47.052;15.462;2023-11-19T12:37:42;15.30;45.70
75931;DHT22;64609;47.052;15.462;2023-11-19T12:40:21;15.20;45.60
75931;DHT22;64609;47.052;15.462;2023-11-19T12:42:54;15.20;45.60
75931;DHT22;64609;47.052;15.462;2023-11-19T12:45:20;15.00;46.00
75931;DHT22;64609;47.052;15.462;2023-11-19T12:47:47;15.00;46.20
75931;DHT22;64609;47.052;15.462;2023-11-19T12:50:14;15.00;46.30
75931;DHT22;64609;47.052;15.462;2023-11-19T12:52:40;15.00;46.70
75931;DHT22;64609;47.052;15.462;2023-11-19T12:55:29;15.00;46.60
75931;DHT22;64609;47.052;15.462;2023-11-19T12:57:56;15.10;46.30
75931;DHT22;64609;47.052;15.462;2023-11-19T13:00:24;15.10;46.60
75931;DHT22;64609;47.052;15.462;2023-11-19T13:02:55;15.10;47.70
75931;DHT22;64609;47.052;15.462;2023-11-19T13:05:30;15.10;46.70
75931;DHT22;64609;47.052;15.462;2023-11-19T13:08:01;15.10;46.50
75931;DHT22;64609;47.052;15.462;2023-11-19T13:10:28;15.10;46.30
75931;DHT22;64609;47.052;15.462;2023-11-19T13:13:05;15.10;46.80
75931;DHT22;64609;47.052;15.462;2023-11-19T13:15:32;15.20;46.70
75931;DHT22;64609;47.052;15.462;2023-11-19T13:17:58;15.20;46.60
75931;DHT22;64609;47.052;15.462;2023-11-19T13:20:24;15.20;46.40
75931;DHT22;64609;47.052;15.462;2023-11-19T13:23:00;15.20;46.80
75931;DHT22;64609;47.052;15.462;2023-11-19T13:25:27;15.20;46.30
75931;DHT22;64609;47.052;15.462;2023-11-19T13:27:53;15.20;46.10
75931;DHT22;64609;47.052;15.462;2023-11-19T13:30:20;15.10;46.20
75931;DHT22;64609;47.052;15.462;2023-11-19T13:32:45;15.10;46.20
75931;DHT22;64609;47.052;15.462;2023-11-19T13:35:14;15.10;46.10
75931;DHT22;64609;47.052;15.462;2023-11-19T13:37:40;15.20;46.30
75931;DHT22;64609;47.052;15.462;2023-11-19T13:40:10;15.20;45.90
75931;DHT22;64609;47.052;15.462;2023-11-19T13:42:39;15.20;46.10
75931;DHT22;64609;47.052;15.462;2023-11-19T13:45:11;15.20;46.20
75931;DHT22;64609;47.052;15.462;2023-11-19T13:47:41;15.20;45.80
75931;DHT22;64609;47.052;15.462;2023-11-19T13:50:12;15.10;45.70
75931;DHT22;64609;47.052;15.462;2023-11-19T13:52:39;15.10;45.60
75931;DHT22;64609;47.052;15.462;2023-11-19T13:55:06;15.20;45.90
75931;DHT22;64609;47.052;15.462;2023-11-19T13:57:32;15.10;45.90
75931;DHT22;64609;47.052;15.462;2023-11-19T13:59:58;15.10;46.00
75931;DHT22;64609;47.052;15.462;2023-11-19T14:02:23;15.10;46.70
75931;DHT22;64609;47.052;15.462;2023-11-19T14:04:49;15.10;46.70
75931;DHT22;64609;47.052;15.462;2023-11-19T14:07:15;15.00;46.40
75931;DHT22;64609;47.052;15.462;2023-11-19T14:09:42;15.00;46.50
75931;DHT22;64609;47.052;15.462;2023-11-19T14:12:08;15.00;46.60
75931;DHT22;64609;47.052;15.462;2023-11-19T14:14:35;14.90;46.60
75931;DHT22;64609;47.052;15.462;2023-11-19T14:17:02;14.80;47.00
75931;DHT22;64609;47.052;15.462;2023-11-19T14:19:28;14.90;47.00
75931;DHT22;64609;47.052;15.462;2023-11-19T14:21:54;14.80;46.50
75931;DHT22;64609;47.052;15.462;2023-11-19T14:24:20;14.80;46.80
75931;DHT22;64609;47.052;15.462;2023-11-19T14:26:46;14.80;46.90
75931;DHT22;64609;47.052;15.462;2023-11-19T14:29:12;14.80;46.80
75931;DHT22;64609;47.052;15.462;2023-11-19T14:31:38;14.80;46.50
75931;DHT22;64609;47.052;15.462;2023-11-19T14:34:05;14.80;47.10
75931;DHT22;64609;47.052;15.462;2023-11-19T14:36:30;14.70;46.60
75931;DHT22;64609;47.052;15.462;2023-11-19T14:38:56;14.70;46.70
75931;DHT22;64609;47.052;15.462;2023-11-19T14:41:24;14.70;47.40
75931;DHT22;64609;47.052;15.462;2023-11-19T14:43:50;14.60;47.80
75931;DHT22;64609;47.052;15.462;2023-11-19T14:46:16;14.50;47.30
75931;DHT22;64609;47.052;15.462;2023-11-19T14:48:41;14.50;48.00
75931;DHT22;64609;47.052;15.462;2023-11-19T14:51:07;14.40;49.20
75931;DHT22;64609;47.052;15.462;2023-11-19T14:53:33;14.40;48.80
75931;DHT22;64609;47.052;15.462;2023-11-19T14:56:00;14.30;49.10
75931;DHT22;64609;47.052;15.462;2023-11-19T14:58:26;14.30;49.10
75931;DHT22;64609;47.052;15.462;2023-11-19T15:00:53;14.20;49.60
75931;DHT22;64609;47.052;15.462;2023-11-19T15:03:18;14.10;49.60
75931;DHT22;64609;47.052;15.462;2023-11-19T15:05:47;14.10;49.30
75931;DHT22;64609;47.052;15.462;2023-11-19T15:08:13;14.00;49.50
75931;DHT22;64609;47.052;15.462;2023-11-19T15:10:44;13.90;49.90
75931;DHT22;64609;47.052;15.462;2023-11-19T15:13:11;13.80;49.80
75931;DHT22;64609;47.052;15.462;2023-11-19T15:15:36;13.80;50.50
75931;DHT22;64609;47.052;15.462;2023-11-19T15:18:04;13.70;51.20
75931;DHT22;64609;47.052;15.462;2023-11-19T15:20:30;13.60;50.40
75931;DHT22;64609;47.052;15.462;2023-11-19T15:22:57;13.50;50.60
75931;DHT22;64609;47.052;15.462;2023-11-19T15:25:23;13.50;51.50
75931;DHT22;64609;47.052;15.462;2023-11-19T15:27:49;13.40;51.50
75931;DHT22;64609;47.052;15.462;2023-11-19T15:30:15;13.30;51.70
75931;DHT22;64609;47.052;15.462;2023-11-19T15:32:41;13.20;52.10
75931;DHT22;64609;47.052;15.462;2023-11-19T15:35:08;13.10;52.00
75931;DHT22;64609;47.052;15.462;2023-11-19T15:37:35;13.10;51.90
75931;DHT22;64609;47.052;15.462;2023-11-19T15:40:01;13.00;52.40
75931;DHT22;64609;47.052;15.462;2023-11-19T15:42:29;12.90;52.60
75931;DHT22;64609;47.052;15.462;2023-11-19T15:44:55;12.80;52.70
75931;DHT22;64609;47.052;15.462;2023-11-19T15:47:20;12.80;53.10
75931;DHT22;64609;47.052;15.462;2023-11-19T15:49:46;12.70;53.10
75931;DHT22;64609;47.052;15.462;2023-11-19T15:52:14;12.60;53.10